Station Historical Data
Daily Summary for March 12, 2017 Units:  Metric    English   Both
« Previous Day
Next Day »
Daily Weekly Monthly Yearly Custom
  High: Low: Average:
Temperature: -5.3 °C -11.2 °C -8.4 °C
Dew Point: -9.7 °C -15.2 °C -13 °C
Humidity: 86% 52% 70%
Wind Speed: 17.7km/h 0km/h 4.7km/h
Wind Gust: 24.1km/h - -
Wind- - South
Pressure: 1032.7 hPa 1028.3 hPa -
Precipitation: 0 mm    
Historical Graphs
 
 
Tabular Data for March 12, 2017
Time Temperature Dew Point Pressure Wind Wind Speed Wind Gust Humidity Rainfall Rate (Hourly)
00:04 -7.8 °C -9.8 °C 1028.3 hPa WNW 1.6 km/h 8 km/h 86% 0 mm
00:09 -7.8 °C -9.8 °C 1028.3 hPa WNW 1.6 km/h 8 km/h 86% 0 mm
00:14 -7.8 °C -9.8 °C 1028.3 hPa WNW 1.6 km/h 6.4 km/h 86% 0 mm
00:19 -7.9 °C -9.8 °C 1028.3 hPa NW 3.2 km/h 6.4 km/h 86% 0 mm
00:24 -7.9 °C -9.9 °C 1028.3 hPa NW 1.6 km/h 6.4 km/h 86% 0 mm
00:29 -7.9 °C -9.9 °C 1028.3 hPa NW 1.6 km/h 6.4 km/h 86% 0 mm
00:34 -7.9 °C -9.9 °C 1028.3 hPa Calm   3.2 km/h 86% 0 mm
00:39 -8 °C -9.9 °C 1028.3 hPa NNW 1.6 km/h 4.8 km/h 86% 0 mm
00:44 -8.3 °C -10.2 °C 1028.3 hPa North 3.2 km/h 4.8 km/h 86% 0 mm
00:49 -8.6 °C -10.5 °C 1028.3 hPa NNE 3.2 km/h 9.7 km/h 86% 0 mm
00:54 -8.8 °C -10.7 °C 1028.3 hPa NNE 1.6 km/h 6.4 km/h 86% 0 mm
00:59 -8.9 °C -10.8 °C 1028.3 hPa NE 3.2 km/h 6.4 km/h 86% 0 mm
01:05 -9.1 °C -10.9 °C 1028.3 hPa NE 3.2 km/h 9.7 km/h 86% 0 mm
01:10 -9.2 °C -11.1 °C 1028.7 hPa NNE 3.2 km/h 9.7 km/h 86% 0 mm
01:15 -9.3 °C -11.2 °C 1028.7 hPa NNE 3.2 km/h 6.4 km/h 86% 0 mm
01:20 -9.3 °C -11.2 °C 1028.3 hPa NE 4.8 km/h 6.4 km/h 86% 0 mm
01:25 -9.4 °C -11.3 °C 1028.3 hPa NE 3.2 km/h 8 km/h 86% 0 mm
01:30 -9.4 °C -11.3 °C 1028.7 hPa NE 3.2 km/h 6.4 km/h 86% 0 mm
01:35 -9.4 °C -11.3 °C 1028.7 hPa NE 3.2 km/h 11.3 km/h 86% 0 mm
01:40 -9.6 °C -11.7 °C 1028.7 hPa NE 3.2 km/h 11.3 km/h 85% 0 mm
01:45 -9.7 °C -11.7 °C 1028.3 hPa NE 3.2 km/h 8 km/h 85% 0 mm
01:50 -9.8 °C -11.8 °C 1028.7 hPa NE 3.2 km/h 8 km/h 85% 0 mm
01:55 -9.8 °C -11.9 °C 1028.7 hPa NE 4.8 km/h 8 km/h 85% 0 mm
03:00 -9.9 °C -11.9 °C 1028.7 hPa NE 4.8 km/h 8 km/h 85% 0 mm
03:05 -9.9 °C -12 °C 1028.7 hPa NE 3.2 km/h 8 km/h 85% 0 mm
03:10 -10 °C -12.2 °C 1028.7 hPa NE 3.2 km/h 8 km/h 84% 0 mm
03:15 -10.1 °C -12.2 °C 1028.7 hPa NE 3.2 km/h 11.3 km/h 84% 0 mm
03:20 -10.1 °C -12.3 °C 1028.7 hPa ENE 6.4 km/h 11.3 km/h 84% 0 mm
03:25 -10.1 °C -12.3 °C 1028.7 hPa NE 8 km/h 11.3 km/h 84% 0 mm
03:30 -10.1 °C -12.3 °C 1028.7 hPa NE 4.8 km/h 8 km/h 84% 0 mm
03:35 -10.1 °C -12.3 °C 1028.7 hPa NE 3.2 km/h 8 km/h 84% 0 mm
03:40 -10.1 °C -12.3 °C 1028.7 hPa NE 3.2 km/h 8 km/h 84% 0 mm
03:45 -10.2 °C -12.4 °C 1028.7 hPa ENE 3.2 km/h 8 km/h 84% 0 mm
03:50 -10.3 °C -12.5 °C 1028.7 hPa ENE 4.8 km/h 8 km/h 84% 0 mm
03:55 -10.4 °C -12.7 °C 1028.3 hPa NE 4.8 km/h 8 km/h 83% 0 mm
04:00 -10.4 °C -12.7 °C 1028.7 hPa NE 1.6 km/h 8 km/h 83% 0 mm
04:05 -10.4 °C -12.8 °C 1028.7 hPa NE 3.2 km/h 8 km/h 83% 0 mm
04:10 -10.4 °C -12.8 °C 1028.7 hPa NE 3.2 km/h 8 km/h 83% 0 mm
04:15 -10.4 °C -12.8 °C 1028.7 hPa NE 3.2 km/h 8 km/h 83% 0 mm
04:20 -10.5 °C -12.8 °C 1028.7 hPa NE 4.8 km/h 6.4 km/h 83% 0 mm
04:25 -10.6 °C -12.9 °C 1029 hPa NE 3.2 km/h 8 km/h 83% 0 mm
04:30 -10.6 °C -12.9 °C 1029 hPa NNE 1.6 km/h 8 km/h 83% 0 mm
04:35 -10.6 °C -12.9 °C 1029 hPa NE 4.8 km/h 9.7 km/h 83% 0 mm
04:40 -10.6 °C -12.9 °C 1029 hPa NE 3.2 km/h 9.7 km/h 83% 0 mm
04:45 -10.6 °C -12.9 °C 1029 hPa NNE 3.2 km/h 8 km/h 83% 0 mm
04:50 -10.6 °C -12.9 °C 1029 hPa NE 3.2 km/h 11.3 km/h 83% 0 mm
04:55 -10.6 °C -12.9 °C 1029 hPa NE 3.2 km/h 11.3 km/h 83% 0 mm
05:00 -10.6 °C -12.9 °C 1029 hPa NNE 3.2 km/h 6.4 km/h 83% 0 mm
05:05 -10.7 °C -13 °C 1029 hPa NNE 3.2 km/h 9.7 km/h 83% 0 mm
05:10 -10.7 °C -13 °C 1029 hPa NE 4.8 km/h 9.7 km/h 83% 0 mm
05:15 -10.7 °C -13 °C 1029 hPa NE 1.6 km/h 8 km/h 83% 0 mm
05:20 -10.6 °C -12.9 °C 1029 hPa NE 3.2 km/h 8 km/h 83% 0 mm
05:25 -10.7 °C -13.2 °C 1029 hPa NE 1.6 km/h 9.7 km/h 82% 0 mm
05:30 -10.7 °C -13.2 °C 1029 hPa NE 3.2 km/h 6.4 km/h 82% 0 mm
05:35 -10.7 °C -13.2 °C 1029.3 hPa NE 1.6 km/h 6.4 km/h 82% 0 mm
05:40 -10.7 °C -13 °C 1029.3 hPa NE 4.8 km/h 6.4 km/h 83% 0 mm
05:45 -10.7 °C -13 °C 1029.3 hPa NE 6.4 km/h 8 km/h 83% 0 mm
05:50 -10.7 °C -13.2 °C 1029.3 hPa NE 1.6 km/h 8 km/h 82% 0 mm
05:55 -10.7 °C -13.2 °C 1029.3 hPa NE 3.2 km/h 8 km/h 82% 0 mm
06:00 -10.7 °C -13.2 °C 1029.3 hPa NE 3.2 km/h 8 km/h 82% 0 mm
06:05 -10.7 °C -13.2 °C 1029.7 hPa NNE 1.6 km/h 6.4 km/h 82% 0 mm
06:10 -10.7 °C -13.2 °C 1029.7 hPa NNE 1.6 km/h 6.4 km/h 82% 0 mm
06:15 -10.8 °C -13.3 °C 1029.7 hPa NNE 3.2 km/h 6.4 km/h 82% 0 mm
06:20 -10.8 °C -13.3 °C 1029.7 hPa ENE 8 km/h 8 km/h 82% 0 mm
06:24 -10.8 °C -13.3 °C 1029.7 hPa NE 3.2 km/h 11.3 km/h 82% 0 mm
06:30 -10.8 °C -13.3 °C 1029.7 hPa NE 1.6 km/h 3.2 km/h 82% 0 mm
06:35 -10.8 °C -13.3 °C 1029.7 hPa NE 1.6 km/h 6.4 km/h 82% 0 mm
06:40 -10.8 °C -13.3 °C 1029.7 hPa NNE 1.6 km/h 9.7 km/h 82% 0 mm
06:45 -10.8 °C -13.3 °C 1029.7 hPa NE 3.2 km/h 6.4 km/h 82% 0 mm
06:50 -10.8 °C -13.3 °C 1029.7 hPa NE 1.6 km/h 6.4 km/h 82% 0 mm
06:54 -10.9 °C -13.3 °C 1029.7 hPa NE 3.2 km/h 6.4 km/h 82% 0 mm
07:00 -10.9 °C -13.3 °C 1029.7 hPa NNE 3.2 km/h 6.4 km/h 82% 0 mm
07:05 -10.9 °C -13.5 °C 1029.7 hPa NE 3.2 km/h 6.4 km/h 81% 0 mm
07:10 -10.9 °C -13.5 °C 1030 hPa NNE 1.6 km/h 6.4 km/h 81% 0 mm
07:15 -10.9 °C -13.5 °C 1029.7 hPa North 3.2 km/h 4.8 km/h 81% 0 mm
07:20 -10.9 °C -13.4 °C 1029.7 hPa NE 3.2 km/h 4.8 km/h 82% 0 mm
07:25 -11 °C -13.4 °C 1029.7 hPa NE 6.4 km/h 11.3 km/h 82% 0 mm
07:30 -11 °C -13.4 °C 1029.7 hPa NE 4.8 km/h 8 km/h 82% 0 mm
07:34 -11.1 °C -13.6 °C 1029.7 hPa NE 6.4 km/h 11.3 km/h 82% 0 mm
07:40 -11.2 °C -13.6 °C 1030 hPa Calm   8 km/h 82% 0 mm
07:45 -11.1 °C -13.6 °C 1030 hPa NNE 3.2 km/h 6.4 km/h 82% 0 mm
07:50 -11.2 °C -13.6 °C 1030 hPa NE 3.2 km/h 9.7 km/h 82% 0 mm
07:55 -11.2 °C -13.6 °C 1030 hPa NNE 1.6 km/h 8 km/h 82% 0 mm
08:00 -11.2 °C -13.6 °C 1030 hPa NE 3.2 km/h 8 km/h 82% 0 mm
08:04 -11.1 °C -13.6 °C 1030 hPa NNE 3.2 km/h 6.4 km/h 82% 0 mm
08:10 -11.1 °C -13.5 °C 1030 hPa North 1.6 km/h 4.8 km/h 82% 0 mm
08:15 -11.1 °C -13.7 °C 1030 hPa North 3.2 km/h 6.4 km/h 81% 0 mm
08:20 -11.1 °C -13.9 °C 1030.4 hPa NNW 3.2 km/h 9.7 km/h 80% 0 mm
08:25 -11.2 °C -14.1 °C 1030.4 hPa North 6.4 km/h 9.7 km/h 79% 0 mm
08:30 -11.2 °C -14.2 °C 1030.4 hPa North 3.2 km/h 6.4 km/h 78% 0 mm
08:34 -11.1 °C -14.2 °C 1030.4 hPa North 3.2 km/h 8 km/h 78% 0 mm
08:40 -11.1 °C -14.3 °C 1030.4 hPa North 3.2 km/h 8 km/h 77% 0 mm
08:44 -10.9 °C -14.2 °C 1030.4 hPa North 1.6 km/h 4.8 km/h 77% 0 mm
08:49 -10.8 °C -14.2 °C 1030.4 hPa NE 4.8 km/h 4.8 km/h 76% 0 mm
08:54 -10.7 °C -14.1 °C 1030.7 hPa NNE 3.2 km/h 6.4 km/h 76% 0 mm
08:59 -10.7 °C -14.2 °C 1030.7 hPa North 1.6 km/h 8 km/h 75% 0 mm
09:04 -10.7 °C -14.3 °C 1031 hPa North 1.6 km/h 8 km/h 75% 0 mm
09:09 -10.7 °C -14.4 °C 1031 hPa North 3.2 km/h 8 km/h 74% 0 mm
09:14 -10.7 °C -14.6 °C 1031 hPa North 3.2 km/h 8 km/h 73% 0 mm
09:20 -10.6 °C -14.7 °C 1031 hPa North 3.2 km/h 9.7 km/h 72% 0 mm
09:25 -10.4 °C -14.5 °C 1031 hPa North 3.2 km/h 6.4 km/h 72% 0 mm
09:30 -10.3 °C -14.6 °C 1031 hPa NNE 4.8 km/h 8 km/h 71% 0 mm
09:35 -10.3 °C -14.7 °C 1031 hPa NNW 1.6 km/h 8 km/h 70% 0 mm
09:40 -10.3 °C -14.9 °C 1031 hPa North 1.6 km/h 4.8 km/h 69% 0 mm
09:44 -10.2 °C -14.8 °C 1031 hPa North 1.6 km/h 4.8 km/h 69% 0 mm
09:50 -9.9 °C -14.7 °C 1031 hPa NNW 3.2 km/h 6.4 km/h 68% 0 mm
09:55 -9.7 °C -14.8 °C 1031 hPa North 1.6 km/h 6.4 km/h 66% 0 mm
09:59 -9.4 °C -14.6 °C 1031.4 hPa North 4.8 km/h 6.4 km/h 66% 0 mm
10:04 -9.4 °C -14.8 °C 1031.4 hPa North 4.8 km/h 4.8 km/h 65% 0 mm
10:09 -9.6 °C -15.2 °C 1031.4 hPa Calm   4.8 km/h 64% 0 mm
10:15 -9.4 °C -14.8 °C 1031 hPa NNE 6.4 km/h 6.4 km/h 65% 0 mm
10:19 -9.5 °C -15.1 °C 1031.4 hPa North 3.2 km/h 6.4 km/h 64% 0 mm
10:25 -9.3 °C -14.8 °C 1031.4 hPa NNW 3.2 km/h 6.4 km/h 64% 0 mm
10:30 -9.4 °C -15.1 °C 1031 hPa NNW 3.2 km/h 6.4 km/h 63% 0 mm
10:35 -9.4 °C -15.2 °C 1031.4 hPa NW 1.6 km/h 6.4 km/h 63% 0 mm
10:40 -9.1 °C -14.8 °C 1031.4 hPa NNE 3.2 km/h 4.8 km/h 63% 0.25 mm
10:45 -8.9 °C -14.8 °C 1031.4 hPa North 3.2 km/h 6.4 km/h 62% 0.25 mm
10:50 -8.7 °C -14.7 °C 1031.4 hPa NE 3.2 km/h 6.4 km/h 62% 0.25 mm
13:34 -6.4 °C -13.5 °C 1031.4 hPa WNW 6.4 km/h 20.9 km/h 57% 0 mm
13:39 -6.6 °C -14.3 °C 1031.4 hPa WNW 8 km/h 20.9 km/h 54% 0 mm
13:44 -6.2 °C -13.6 °C 1031.4 hPa WNW 8 km/h 19.3 km/h 56% 0 mm
13:49 -5.9 °C -13.5 °C 1031 hPa WNW 9.7 km/h 19.3 km/h 55% 0 mm
13:55 -6.4 °C -14.2 °C 1031 hPa NW 3.2 km/h 17.7 km/h 54% 0 mm
14:00 -6.3 °C -14.1 °C 1031 hPa West 6.4 km/h 17.7 km/h 54% 0 mm
14:05 -6.4 °C -14.2 °C 1031 hPa NW 14.5 km/h 17.7 km/h 54% 0 mm
14:10 -6.2 °C -14.1 °C 1031 hPa WNW 14.5 km/h 17.7 km/h 54% 0 mm
14:14 -6.3 °C -14.1 °C 1031 hPa WNW 8 km/h 17.7 km/h 54% 0 mm
14:19 -5.4 °C -13.1 °C 1031 hPa WNW 8 km/h 16.1 km/h 55% 0 mm
14:25 -5.6 °C -13.2 °C 1031 hPa WNW 6.4 km/h 17.7 km/h 55% 0 mm
14:29 -5.3 °C -12.9 °C 1031 hPa West 4.8 km/h 12.9 km/h 55% 0 mm
14:34 -5.4 °C -13.7 °C 1031 hPa WNW 9.7 km/h 19.3 km/h 52% 0 mm
14:39 -6 °C -14.3 °C 1031 hPa North 8 km/h 17.7 km/h 52% 0 mm
14:44 -6.2 °C -14 °C 1030.7 hPa WNW 4.8 km/h 12.9 km/h 54% 0 mm
14:49 -6.2 °C -13.6 °C 1030.7 hPa WNW 8 km/h 16.1 km/h 56% 0 mm
14:54 -5.8 °C -13.6 °C 1030.7 hPa West 8 km/h 17.7 km/h 54% 0 mm
14:59 -6.1 °C -13 °C 1030.7 hPa West 8 km/h 17.7 km/h 58% 0 mm
15:04 -5.8 °C -12.4 °C 1030.7 hPa WSW 8 km/h 16.1 km/h 60% 0 mm
15:10 -6.1 °C -12.4 °C 1030.7 hPa West 11.3 km/h 16.1 km/h 61% 0 mm
15:14 -5.4 °C -11.6 °C 1030.7 hPa SW 8 km/h 16.1 km/h 62% 0 mm
15:20 -5.9 °C -12.4 °C 1030.4 hPa WSW 8 km/h 17.7 km/h 60% 0 mm
15:24 -5.6 °C -11.6 °C 1030.7 hPa WSW 9.7 km/h 19.3 km/h 63% 0 mm
15:29 -5.7 °C -11.4 °C 1030.7 hPa WSW 9.7 km/h 19.3 km/h 64% 0 mm
15:35 -5.8 °C -11.1 °C 1030.7 hPa WSW 9.7 km/h 17.7 km/h 66% 0 mm
15:39 -5.7 °C -11.4 °C 1030.7 hPa West 12.9 km/h 22.5 km/h 64% 0 mm
15:44 -6.2 °C -11.2 °C 1030.4 hPa WSW 12.9 km/h 22.5 km/h 68% 0 mm
15:50 -6.3 °C -10.8 °C 1030.7 hPa West 8 km/h 16.1 km/h 70% 0 mm
15:54 -6.3 °C -10.7 °C 1030.7 hPa SW 12.9 km/h 17.7 km/h 71% 0 mm
15:59 -6.2 °C -10.4 °C 1030.7 hPa WNW 11.3 km/h 20.9 km/h 72% 0 mm
16:05 -6.3 °C -10.7 °C 1030.7 hPa WNW 6.4 km/h 24.1 km/h 71% 0 mm
16:10 -6 °C -10.4 °C 1030.7 hPa WSW 12.9 km/h 24.1 km/h 71% 0 mm
16:14 -6.2 °C -10.4 °C 1030.7 hPa WSW 3.2 km/h 22.5 km/h 72% 0 mm
16:20 -6.4 °C -10.8 °C 1030.7 hPa West 12.9 km/h 17.7 km/h 71% 0 mm
16:25 -6.4 °C -10.8 °C 1030.7 hPa WSW 6.4 km/h 20.9 km/h 71% 0 mm
16:30 -6.2 °C -10.8 °C 1030.7 hPa WSW 9.7 km/h 20.9 km/h 70% 0 mm
16:35 -6.2 °C -10.6 °C 1030.7 hPa WSW 9.7 km/h 22.5 km/h 71% 0 mm
16:40 -6.1 °C -10.4 °C 1030.7 hPa WSW 11.3 km/h 22.5 km/h 71% 0 mm
16:44 -6.3 °C -10.7 °C 1030.7 hPa WSW 9.7 km/h 17.7 km/h 71% 0 mm
16:49 -6.2 °C -10.4 °C 1030.7 hPa WSW 8 km/h 22.5 km/h 72% 0 mm
16:54 -6.1 °C -10.5 °C 1030.7 hPa WSW 17.7 km/h 22.5 km/h 71% 0 mm
17:00 -5.9 °C -10.6 °C 1030.7 hPa West 11.3 km/h 19.3 km/h 70% 0 mm
17:04 -5.7 °C -9.9 °C 1030.7 hPa West 6.4 km/h 16.1 km/h 72% 0 mm
17:09 -5.8 °C -10.3 °C 1030.7 hPa West 3.2 km/h 14.5 km/h 71% 0 mm
17:14 -5.5 °C -9.8 °C 1030.4 hPa WSW 11.3 km/h 12.9 km/h 72% 0 mm
17:19 -5.3 °C -9.7 °C 1030.4 hPa SW 12.9 km/h 16.1 km/h 71% 0 mm
17:24 -5.5 °C -10.1 °C 1030.4 hPa WSW 6.4 km/h 14.5 km/h 70% 0 mm
17:30 -5.4 °C -10 °C 1030.7 hPa WNW 8 km/h 9.7 km/h 70% 0 mm
17:34 -5.7 °C -10.6 °C 1030.7 hPa West 6.4 km/h 22.5 km/h 68% 0 mm
17:39 -5.7 °C -11.1 °C 1030.7 hPa West 6.4 km/h 22.5 km/h 66% 0 mm
17:45 -5.6 °C -11.2 °C 1030.7 hPa West 4.8 km/h 14.5 km/h 65% 0 mm
17:49 -5.6 °C -11.3 °C 1030.7 hPa West 6.4 km/h 16.1 km/h 64% 0 mm
17:55 -5.5 °C -11.2 °C 1030.7 hPa West 6.4 km/h 16.1 km/h 64% 0 mm
18:00 -5.4 °C -11.9 °C 1030.7 hPa WNW 6.4 km/h 12.9 km/h 60% 0 mm
18:04 -5.4 °C -12.6 °C 1030.7 hPa WNW 8 km/h 14.5 km/h 57% 0 mm
18:09 -5.3 °C -13.2 °C 1030.7 hPa West 3.2 km/h 16.1 km/h 54% 0 mm
18:14 -5.4 °C -13.6 °C 1030.7 hPa WNW 6.4 km/h 17.7 km/h 53% 0 mm
18:19 -5.5 °C -13.3 °C 1031 hPa West 12.9 km/h 17.7 km/h 54% 0 mm
18:24 -5.6 °C -13.4 °C 1031 hPa West 9.7 km/h 17.7 km/h 54% 0 mm
18:29 -5.6 °C -13.4 °C 1031 hPa West 9.7 km/h 16.1 km/h 54% 0 mm
18:34 -5.7 °C -13.6 °C 1031 hPa WNW 6.4 km/h 16.1 km/h 54% 0 mm
18:40 -5.8 °C -13.8 °C 1031 hPa WNW 8 km/h 17.7 km/h 53% 0 mm
18:44 -5.8 °C -13.8 °C 1031 hPa WNW 8 km/h 19.3 km/h 53% 0 mm
18:49 -5.9 °C -13.7 °C 1031 hPa WNW 8 km/h 19.3 km/h 54% 0 mm
18:54 -5.9 °C -13.8 °C 1031.4 hPa WNW 8 km/h 19.3 km/h 54% 0 mm
18:59 -6 °C -14.1 °C 1031.4 hPa WNW 9.7 km/h 17.7 km/h 53% 0 mm
19:04 -6.1 °C -13.9 °C 1031.7 hPa WNW 9.7 km/h 14.5 km/h 54% 0 mm
19:09 -6.2 °C -14 °C 1031.7 hPa West 3.2 km/h 14.5 km/h 54% 0 mm
19:14 -6.3 °C -13.8 °C 1031.7 hPa WNW 8 km/h 17.7 km/h 55% 0 mm
19:19 -6.3 °C -14.1 °C 1031.7 hPa WNW 8 km/h 17.7 km/h 54% 0 mm
19:24 -6.3 °C -13.9 °C 1031.7 hPa WNW 8 km/h 17.7 km/h 55% 0 mm
19:29 -6.4 °C -13.9 °C 1031.7 hPa West 4.8 km/h 11.3 km/h 55% 0 mm
19:34 -6.5 °C -14.1 °C 1031.7 hPa NW 4.8 km/h 9.7 km/h 55% 0 mm
19:39 -6.6 °C -14.1 °C 1032.1 hPa West 9.7 km/h 11.3 km/h 55% 0 mm
19:44 -6.5 °C -14.1 °C 1032.1 hPa West 8 km/h 16.1 km/h 55% 0 mm
19:49 -6.4 °C -14 °C 1032.1 hPa WNW 8 km/h 16.1 km/h 55% 0 mm
19:54 -6.4 °C -14 °C 1032.1 hPa WNW 6.4 km/h 16.1 km/h 55% 0 mm
19:59 -6.5 °C -14.1 °C 1032.1 hPa West 9.7 km/h 14.5 km/h 55% 0 mm
20:04 -6.6 °C -13.9 °C 1032.1 hPa NW 4.8 km/h 9.7 km/h 56% 0 mm
20:09 -6.7 °C -13.8 °C 1032.1 hPa WNW 3.2 km/h 9.7 km/h 57% 0 mm
20:14 -6.8 °C -13.9 °C 1032.1 hPa WNW 6.4 km/h 6.4 km/h 57% 0 mm
20:19 -6.8 °C -13.7 °C 1032.1 hPa NNW 3.2 km/h 11.3 km/h 58% 0 mm
20:24 -6.9 °C -13.6 °C 1032.1 hPa WNW 4.8 km/h 11.3 km/h 59% 0 mm
20:29 -6.9 °C -13.6 °C 1032.1 hPa NW 4.8 km/h 11.3 km/h 59% 0 mm
20:34 -6.9 °C -13.6 °C 1032.1 hPa NW 4.8 km/h 11.3 km/h 59% 0 mm
20:39 -6.9 °C -13.6 °C 1032.1 hPa NW 6.4 km/h 11.3 km/h 59% 0 mm
20:44 -6.9 °C -13.6 °C 1032.1 hPa WNW 3.2 km/h 11.3 km/h 59% 0 mm
20:50 -7.1 °C -13.7 °C 1032.1 hPa NW 4.8 km/h 6.4 km/h 59% 0 mm
20:54 -7.3 °C -13.7 °C 1032.4 hPa WNW 3.2 km/h 8 km/h 60% 0 mm
20:59 -7.3 °C -13.6 °C 1032.4 hPa WNW 3.2 km/h 8 km/h 61% 0 mm
21:04 -7.5 °C -13.7 °C 1032.4 hPa Calm   4.8 km/h 61% 0 mm
21:09 -7.6 °C -13.8 °C 1032.4 hPa Calm   4.8 km/h 61% 0 mm
21:14 -7.8 °C -13.8 °C 1032.4 hPa WNW 3.2 km/h 3.2 km/h 62% 0 mm
21:19 -7.8 °C -13.8 °C 1032.1 hPa NW 3.2 km/h 4.8 km/h 62% 0 mm
21:24 -7.8 °C -13.8 °C 1032.1 hPa WNW 1.6 km/h 6.4 km/h 62% 0 mm
21:29 -7.7 °C -13.9 °C 1032.1 hPa NW 3.2 km/h 8 km/h 61% 0 mm
21:34 -7.8 °C -14 °C 1032.1 hPa NW 1.6 km/h 8 km/h 61% 0 mm
21:39 -8 °C -14.2 °C 1032.1 hPa WNW 1.6 km/h 6.4 km/h 61% 0 mm
21:44 -8 °C -14.2 °C 1032.1 hPa NW 1.6 km/h 8 km/h 61% 0 mm
21:49 -7.9 °C -14.2 °C 1032.1 hPa NW 1.6 km/h 8 km/h 61% 0 mm
21:54 -8.1 °C -14.1 °C 1032.1 hPa Calm   6.4 km/h 62% 0 mm
21:59 -8.1 °C -14.3 °C 1032.1 hPa NW 1.6 km/h 6.4 km/h 61% 0 mm
22:04 -8.2 °C -14.2 °C 1032.1 hPa WNW 1.6 km/h 6.4 km/h 62% 0 mm
22:09 -8.1 °C -14.3 °C 1032.1 hPa WNW 3.2 km/h 8 km/h 61% 0 mm
22:14 -7.9 °C -14.2 °C 1032.4 hPa WNW 1.6 km/h 8 km/h 61% 0 mm
22:19 -8.1 °C -14.3 °C 1032.4 hPa NW 1.6 km/h 6.4 km/h 61% 0 mm
22:24 -8.2 °C -14.4 °C 1032.4 hPa WNW 3.2 km/h 4.8 km/h 61% 0 mm
22:29 -8.2 °C -14.2 °C 1032.4 hPa WNW 3.2 km/h 4.8 km/h 62% 0 mm
22:34 -8.2 °C -14.4 °C 1032.4 hPa NW 3.2 km/h 6.4 km/h 61% 0 mm
22:39 -8.2 °C -14.4 °C 1032.7 hPa NW 3.2 km/h 6.4 km/h 61% 0 mm
22:44 -8.4 °C -14.6 °C 1032.7 hPa NW 1.6 km/h 4.8 km/h 61% 0 mm
22:49 -8.4 °C -14.4 °C 1032.4 hPa NW 1.6 km/h 4.8 km/h 62% 0 mm
22:54 -8.6 °C -14.6 °C 1032.4 hPa NW 1.6 km/h 4.8 km/h 62% 0 mm
22:59 -8.7 °C -14.4 °C 1032.4 hPa Calm   6.4 km/h 63% 0 mm
23:04 -8.6 °C -14.4 °C 1032.4 hPa Calm   3.2 km/h 63% 0 mm
23:09 -8.7 °C -14.3 °C 1032.7 hPa WNW 1.6 km/h 4.8 km/h 64% 0 mm
23:14 -8.8 °C -14.4 °C 1032.7 hPa NW 1.6 km/h 4.8 km/h 64% 0 mm
23:19 -9 °C -14.4 °C 1032.7 hPa Calm   3.2 km/h 65% 0 mm
23:24 -9.1 °C -14.3 °C 1032.7 hPa Calm   1.6 km/h 66% 0 mm
23:29 -9.4 °C -14.6 °C 1032.4 hPa Calm     66% 0 mm
23:34 -9.6 °C -14.4 °C 1032.4 hPa Calm     68% 0 mm
23:39 -9.6 °C -14.4 °C 1032.4 hPa Calm     68% 0 mm
23:44 -9.8 °C -14.4 °C 1032.4 hPa Calm     69% 0 mm
23:49 -9.9 °C -14.4 °C 1032.4 hPa Calm     70% 0 mm
23:54 -10 °C -14.4 °C 1032.4 hPa Calm   1.6 km/h 70% 0 mm
23:59 -9.9 °C -14.2 °C 1032.4 hPa Calm   1.6 km/h 71% 0 mm
Buffalo, New York, USA
Compliments of Weather Underground - 2.25 mb